sensor_id;sensor_type;location;lat;lon;timestamp;P1;durP1;ratioP1;P2;durP2;ratioP2
6926;SDS011;3503;50.07605000;8.86719200;2022-09-06T00:12:01;4.87;;;1.93;;
6926;SDS011;3503;50.07605000;8.86719200;2022-09-06T00:27:04;5.33;;;1.97;;
6926;SDS011;3503;50.07605000;8.86719200;2022-09-06T00:42:08;4.90;;;2.13;;
6926;SDS011;3503;50.07605000;8.86719200;2022-09-06T00:57:11;2.73;;;1.57;;
6926;SDS011;3503;50.07605000;8.86719200;2022-09-06T01:12:19;3.60;;;1.93;;
6926;SDS011;3503;50.07605000;8.86719200;2022-09-06T01:27:43;4.40;;;2.50;;
6926;SDS011;3503;50.07605000;8.86719200;2022-09-06T01:42:54;2.97;;;1.63;;
6926;SDS011;3503;50.07605000;8.86719200;2022-09-06T01:58:03;3.43;;;2.00;;
6926;SDS011;3503;50.07605000;8.86719200;2022-09-06T02:13:14;2.80;;;1.80;;
6926;SDS011;3503;50.07605000;8.86719200;2022-09-06T02:28:18;3.07;;;2.37;;
6926;SDS011;3503;50.07605000;8.86719200;2022-09-06T02:43:21;2.33;;;1.30;;
6926;SDS011;3503;50.07605000;8.86719200;2022-09-06T02:58:24;4.00;;;2.03;;
6926;SDS011;3503;50.07605000;8.86719200;2022-09-06T03:13:27;3.43;;;1.47;;
6926;SDS011;3503;50.07605000;8.86719200;2022-09-06T03:28:30;2.73;;;1.60;;
6926;SDS011;3503;50.07605000;8.86719200;2022-09-06T03:43:33;2.23;;;1.67;;
6926;SDS011;3503;50.07605000;8.86719200;2022-09-06T03:58:36;3.93;;;1.70;;
6926;SDS011;3503;50.07605000;8.86719200;2022-09-06T04:13:39;5.90;;;2.20;;
6926;SDS011;3503;50.07605000;8.86719200;2022-09-06T04:28:42;7.00;;;2.60;;
6926;SDS011;3503;50.07605000;8.86719200;2022-09-06T04:43:45;3.37;;;1.67;;
6926;SDS011;3503;50.07605000;8.86719200;2022-09-06T04:58:51;4.10;;;2.10;;
6926;SDS011;3503;50.07605000;8.86719200;2022-09-06T05:13:54;5.67;;;2.37;;
6926;SDS011;3503;50.07605000;8.86719200;2022-09-06T05:28:57;4.87;;;1.60;;
6926;SDS011;3503;50.07605000;8.86719200;2022-09-06T05:44:00;4.13;;;1.93;;
6926;SDS011;3503;50.07605000;8.86719200;2022-09-06T05:59:04;3.60;;;2.40;;
6926;SDS011;3503;50.07605000;8.86719200;2022-09-06T06:14:07;4.03;;;1.90;;
6926;SDS011;3503;50.07605000;8.86719200;2022-09-06T06:29:10;3.77;;;2.03;;
6926;SDS011;3503;50.07605000;8.86719200;2022-09-06T06:44:13;3.20;;;1.20;;
6926;SDS011;3503;50.07605000;8.86719200;2022-09-06T06:59:16;5.07;;;1.83;;
6926;SDS011;3503;50.07605000;8.86719200;2022-09-06T07:14:19;3.70;;;1.80;;
6926;SDS011;3503;50.07605000;8.86719200;2022-09-06T07:29:22;3.23;;;1.80;;
6926;SDS011;3503;50.07605000;8.86719200;2022-09-06T07:44:24;3.60;;;1.80;;
6926;SDS011;3503;50.07605000;8.86719200;2022-09-06T07:59:29;3.00;;;1.70;;
6926;SDS011;3503;50.07605000;8.86719200;2022-09-06T08:14:32;3.03;;;1.70;;
6926;SDS011;3503;50.07605000;8.86719200;2022-09-06T08:29:35;2.20;;;1.63;;
6926;SDS011;3503;50.07605000;8.86719200;2022-09-06T08:44:38;5.17;;;1.40;;
6926;SDS011;3503;50.07605000;8.86719200;2022-09-06T08:59:43;2.40;;;1.07;;
6926;SDS011;3503;50.07605000;8.86719200;2022-09-06T09:14:45;1.40;;;1.23;;
6926;SDS011;3503;50.07605000;8.86719200;2022-09-06T09:29:57;3.37;;;1.20;;
6926;SDS011;3503;50.07605000;8.86719200;2022-09-06T09:45:02;1.40;;;0.80;;
6926;SDS011;3503;50.07605000;8.86719200;2022-09-06T10:00:09;2.00;;;1.20;;
6926;SDS011;3503;50.07605000;8.86719200;2022-09-06T10:30:37;1.87;;;1.10;;
6926;SDS011;3503;50.07605000;8.86719200;2022-09-06T10:45:45;2.00;;;1.27;;
6926;SDS011;3503;50.07605000;8.86719200;2022-09-06T11:00:55;2.77;;;1.20;;
6926;SDS011;3503;50.07605000;8.86719200;2022-09-06T11:15:58;2.67;;;1.17;;
6926;SDS011;3503;50.07605000;8.86719200;2022-09-06T11:31:04;2.30;;;1.07;;
6926;SDS011;3503;50.07605000;8.86719200;2022-09-06T11:46:07;1.37;;;0.90;;
6926;SDS011;3503;50.07605000;8.86719200;2022-09-06T12:32:25;1.23;;;0.77;;
6926;SDS011;3503;50.07605000;8.86719200;2022-09-06T12:47:30;1.13;;;0.50;;
6926;SDS011;3503;50.07605000;8.86719200;2022-09-06T13:02:36;1.53;;;0.80;;
6926;SDS011;3503;50.07605000;8.86719200;2022-09-06T13:17:43;2.20;;;0.60;;
6926;SDS011;3503;50.07605000;8.86719200;2022-09-06T13:32:46;12.00;;;0.70;;
6926;SDS011;3503;50.07605000;8.86719200;2022-09-06T13:47:49;2.57;;;0.93;;
6926;SDS011;3503;50.07605000;8.86719200;2022-09-06T14:02:52;1.33;;;0.70;;
6926;SDS011;3503;50.07605000;8.86719200;2022-09-06T14:17:55;1.70;;;1.00;;
6926;SDS011;3503;50.07605000;8.86719200;2022-09-06T14:32:58;1.87;;;0.90;;
6926;SDS011;3503;50.07605000;8.86719200;2022-09-06T14:48:02;2.13;;;0.80;;
6926;SDS011;3503;50.07605000;8.86719200;2022-09-06T15:03:06;2.40;;;1.03;;
6926;SDS011;3503;50.07605000;8.86719200;2022-09-06T15:18:09;6.73;;;1.47;;
6926;SDS011;3503;50.07605000;8.86719200;2022-09-06T15:33:12;3.60;;;1.50;;
6926;SDS011;3503;50.07605000;8.86719200;2022-09-06T15:48:16;2.63;;;1.30;;
6926;SDS011;3503;50.07605000;8.86719200;2022-09-06T16:03:19;2.03;;;1.10;;
6926;SDS011;3503;50.07605000;8.86719200;2022-09-06T16:18:22;8.60;;;1.37;;
6926;SDS011;3503;50.07605000;8.86719200;2022-09-06T16:33:25;2.03;;;1.50;;
6926;SDS011;3503;50.07605000;8.86719200;2022-09-06T16:48:28;2.43;;;1.17;;
6926;SDS011;3503;50.07605000;8.86719200;2022-09-06T17:03:31;3.20;;;1.37;;
6926;SDS011;3503;50.07605000;8.86719200;2022-09-06T17:18:36;3.80;;;1.47;;
6926;SDS011;3503;50.07605000;8.86719200;2022-09-06T17:33:39;6.70;;;2.30;;
6926;SDS011;3503;50.07605000;8.86719200;2022-09-06T17:48:42;6.03;;;2.40;;
6926;SDS011;3503;50.07605000;8.86719200;2022-09-06T18:03:45;3.87;;;2.40;;
6926;SDS011;3503;50.07605000;8.86719200;2022-09-06T18:18:50;4.07;;;2.50;;
6926;SDS011;3503;50.07605000;8.86719200;2022-09-06T18:33:54;5.20;;;2.17;;
6926;SDS011;3503;50.07605000;8.86719200;2022-09-06T18:48:59;2.73;;;1.50;;
6926;SDS011;3503;50.07605000;8.86719200;2022-09-06T19:04:03;4.77;;;1.83;;
6926;SDS011;3503;50.07605000;8.86719200;2022-09-06T19:19:07;2.63;;;1.60;;
6926;SDS011;3503;50.07605000;8.86719200;2022-09-06T19:34:12;9.10;;;1.87;;
6926;SDS011;3503;50.07605000;8.86719200;2022-09-06T19:49:16;3.30;;;1.50;;
6926;SDS011;3503;50.07605000;8.86719200;2022-09-06T20:04:20;4.50;;;2.00;;
6926;SDS011;3503;50.07605000;8.86719200;2022-09-06T20:19:23;5.80;;;1.90;;
6926;SDS011;3503;50.07605000;8.86719200;2022-09-06T20:34:26;5.10;;;2.10;;
6926;SDS011;3503;50.07605000;8.86719200;2022-09-06T20:49:31;3.73;;;1.80;;
6926;SDS011;3503;50.07605000;8.86719200;2022-09-06T21:04:33;3.20;;;1.67;;
6926;SDS011;3503;50.07605000;8.86719200;2022-09-06T21:19:37;4.23;;;1.90;;
6926;SDS011;3503;50.07605000;8.86719200;2022-09-06T21:34:40;4.00;;;1.80;;
6926;SDS011;3503;50.07605000;8.86719200;2022-09-06T21:49:43;4.20;;;2.17;;
6926;SDS011;3503;50.07605000;8.86719200;2022-09-06T22:04:46;2.63;;;1.60;;
6926;SDS011;3503;50.07605000;8.86719200;2022-09-06T22:19:51;6.47;;;2.37;;
6926;SDS011;3503;50.07605000;8.86719200;2022-09-06T22:34:53;4.57;;;2.00;;
6926;SDS011;3503;50.07605000;8.86719200;2022-09-06T22:49:56;4.00;;;1.90;;
6926;SDS011;3503;50.07605000;8.86719200;2022-09-06T23:04:59;2.60;;;1.87;;
6926;SDS011;3503;50.07605000;8.86719200;2022-09-06T23:20:03;5.00;;;1.93;;
6926;SDS011;3503;50.07605000;8.86719200;2022-09-06T23:35:06;3.97;;;1.87;;
6926;SDS011;3503;50.07605000;8.86719200;2022-09-06T23:50:10;3.93;;;1.93;;
